Time;durP1;ratioP1;P1;durP2;ratioP2;P2;SDS_P1;SDS_P2;PMS_P1;PMS_P2;Temp;Humidity;BMP_temperature;BMP_pressure;BME280_temperature;BME280_humidity;BME280_pressure;Samples;Min_cycle;Max_cycle;Signal;HPM_P1;HPM_P2
2022/08/16 00:03:04;;;;;;;5.10;4.60;;;22.70;70.80;;;;;;10476035;28;20216;-77
2022/08/16 00:08:06;;;;;;;4.23;3.97;;;22.70;70.30;;;;;;10469733;28;20252;-78
2022/08/16 00:13:09;;;;;;;5.10;4.80;;;22.70;70.40;;;;;;10468151;28;20221;-78
2022/08/16 00:18:14;;;;;;;4.83;4.53;;;22.70;70.00;;;;;;10462616;28;20227;-76
2022/08/16 00:23:17;;;;;;;5.10;4.60;;;22.60;70.80;;;;;;10472982;28;20196;-78
2022/08/16 00:28:20;;;;;;;4.73;4.43;;;22.60;71.40;;;;;;10483572;28;20234;-77
2022/08/16 00:33:23;;;;;;;5.70;4.40;;;22.60;71.00;;;;;;10493079;28;20578;-77
2022/08/16 00:38:25;;;;;;;4.90;4.60;;;22.60;71.30;;;;;;10466753;28;20711;-77
2022/08/16 00:43:32;;;;;;;5.20;4.70;;;22.60;71.80;;;;;;10492431;28;20614;-77
2022/08/16 00:48:36;;;;;;;5.73;5.03;;;22.60;71.50;;;;;;10465572;28;20217;-76
2022/08/16 00:53:38;;;;;;;5.17;4.77;;;22.60;71.80;;;;;;10460825;28;20232;-77
2022/08/16 00:58:44;;;;;;;5.50;5.00;;;22.60;72.10;;;;;;10476081;28;20300;-77
2022/08/16 01:03:50;;;;;;;5.87;5.37;;;22.50;71.60;;;;;;10469650;28;20653;-78
2022/08/16 01:08:55;;;;;;;4.87;4.57;;;22.50;71.60;;;;;;10450536;28;20205;-77
2022/08/16 01:14:04;;;;;;;5.80;5.30;;;22.40;72.30;;;;;;10452032;28;20277;-78
2022/08/16 01:19:18;;;;;;;5.33;4.93;;;22.40;73.00;;;;;;10452198;28;20218;-78
2022/08/16 01:24:26;;;;;;;5.33;5.03;;;22.30;73.50;;;;;;10516089;22;20636;-81
2022/08/16 01:29:35;;;;;;;6.07;5.20;;;22.20;73.50;;;;;;10513775;28;20269;-78
2022/08/16 01:34:37;;;;;;;5.90;5.37;;;22.20;73.70;;;;;;10500953;28;20258;-77
2022/08/16 01:39:41;;;;;;;5.40;5.00;;;22.10;74.30;;;;;;10497084;28;20196;-78
2022/08/16 01:44:47;;;;;;;5.43;5.03;;;22.20;74.10;;;;;;10515114;28;20220;-78
2022/08/16 01:49:49;;;;;;;5.20;4.87;;;22.10;76.10;;;;;;10519784;28;20626;-78
2022/08/16 01:54:53;;;;;;;5.37;4.97;;;22.10;75.90;;;;;;10503203;28;20226;-78
2022/08/16 01:59:56;;;;;;;5.60;5.10;;;22.10;75.40;;;;;;10512700;28;20268;-78
2022/08/16 02:04:59;;;;;;;5.40;5.00;;;22.00;76.10;;;;;;10507340;28;20769;-79
2022/08/16 02:10:05;;;;;;;6.50;5.80;;;22.00;76.00;;;;;;10516406;28;20224;-78
2022/08/16 02:15:17;;;;;;;5.13;4.83;;;22.00;76.40;;;;;;10518282;28;20227;-78
2022/08/16 02:20:19;;;;;;;5.83;5.37;;;22.00;76.40;;;;;;10502273;28;20241;-78
2022/08/16 02:25:24;;;;;;;5.40;5.10;;;22.00;76.70;;;;;;10491450;28;20317;-78
2022/08/16 02:30:28;;;;;;;6.20;5.60;;;22.00;76.30;;;;;;10533938;28;20687;-78
2022/08/16 02:35:32;;;;;;;5.90;5.50;;;22.10;76.70;;;;;;10521985;28;20284;-78
2022/08/16 02:40:36;;;;;;;7.00;6.33;;;22.10;76.40;;;;;;10515865;28;20218;-78
2022/08/16 02:45:38;;;;;;;5.67;5.27;;;22.20;76.40;;;;;;10480135;28;20224;-79
2022/08/16 02:50:40;;;;;;;6.73;6.23;;;22.20;75.70;;;;;;10515964;28;20219;-79
2022/08/16 02:55:43;;;;;;;5.80;5.40;;;22.30;76.80;;;;;;10538437;28;20640;-79
2022/08/16 03:00:46;;;;;;;5.83;5.43;;;22.30;75.50;;;;;;10522601;28;20196;-78
2022/08/16 03:05:50;;;;;;;6.23;5.83;;;22.20;75.90;;;;;;10503432;28;20217;-78
2022/08/16 03:10:54;;;;;;;6.60;6.00;;;22.20;76.40;;;;;;10512325;28;20227;-78
2022/08/16 03:15:56;;;;;;;6.20;5.80;;;22.20;76.00;;;;;;10514831;28;20235;-78
2022/08/16 03:20:59;;;;;;;6.53;6.13;;;22.20;76.80;;;;;;10513028;28;20246;-78
2022/08/16 03:26:03;;;;;;;6.83;6.30;;;22.20;76.00;;;;;;10511299;28;20227;-78
2022/08/16 03:31:07;;;;;;;6.73;6.23;;;22.20;76.60;;;;;;10508317;28;20695;-78
2022/08/16 03:36:10;;;;;;;6.50;6.00;;;22.20;76.60;;;;;;10497378;28;20239;-78
2022/08/16 03:41:17;;;;;;;6.73;6.20;;;22.10;76.00;;;;;;10509363;28;20565;-78
2022/08/16 03:46:21;;;;;;;7.13;6.63;;;22.10;76.90;;;;;;10515477;28;20247;-78
2022/08/16 03:51:23;;;;;;;7.10;6.60;;;22.00;76.90;;;;;;10513640;28;20219;-78
2022/08/16 03:56:37;;;;;;;5.63;5.30;;;21.80;76.90;;;;;;10496991;28;20244;-79
2022/08/16 04:01:40;;;;;;;6.17;5.73;;;21.80;77.50;;;;;;10510868;28;20196;-78
2022/08/16 04:06:43;;;;;;;7.33;6.70;;;21.70;78.00;;;;;;10500523;28;20306;-78
2022/08/16 04:11:47;;;;;;;6.70;6.20;;;21.70;77.90;;;;;;10514305;28;20255;-78
2022/08/16 04:16:49;;;;;;;7.80;7.10;;;21.60;78.20;;;;;;10496431;28;20652;-78
2022/08/16 04:22:08;;;;;;;6.73;6.33;;;21.60;78.50;;;;;;10514643;28;20196;-78
2022/08/16 04:27:19;;;;;;;6.90;6.50;;;21.70;78.70;;;;;;10514381;28;20638;-78
2022/08/16 04:32:21;;;;;;;6.83;6.43;;;21.70;78.50;;;;;;10516839;28;20584;-78
2022/08/16 04:37:28;;;;;;;6.23;5.83;;;21.70;78.50;;;;;;10517205;28;20277;-78
2022/08/16 04:42:42;;;;;;;7.47;6.77;;;21.80;77.70;;;;;;10496121;28;20290;-77
2022/08/16 04:47:45;;;;;;;7.33;6.73;;;21.90;78.00;;;;;;10483457;28;20306;-78
2022/08/16 04:52:52;;;;;;;7.10;6.70;;;22.00;77.20;;;;;;10498274;28;20814;-78
2022/08/16 04:57:56;;;;;;;6.13;5.73;;;22.10;77.10;;;;;;10511285;28;20633;-79
2022/08/16 05:02:59;;;;;;;6.80;6.37;;;22.20;77.10;;;;;;10530059;28;20227;-79
2022/08/16 05:08:03;;;;;;;6.87;6.47;;;22.30;76.80;;;;;;10512651;28;20706;-78
2022/08/16 05:13:08;;;;;;;7.07;6.57;;;22.30;76.40;;;;;;10501855;28;20268;-78
2022/08/16 05:18:13;;;;;;;6.93;6.43;;;22.40;77.00;;;;;;10526894;28;20589;-78
2022/08/16 05:23:22;;;;;;;6.23;4.93;;;22.50;75.80;;;;;;10510932;28;20200;-78
2022/08/16 05:28:27;;;;;;;6.87;6.50;;;22.50;76.60;;;;;;10506260;28;20276;-78
2022/08/16 05:33:31;;;;;;;7.30;6.83;;;22.60;76.30;;;;;;10506503;28;20227;-79
2022/08/16 05:38:33;;;;;;;7.60;6.97;;;22.60;76.30;;;;;;10514395;28;20583;-79
2022/08/16 05:43:39;;;;;;;7.10;6.70;;;22.70;76.10;;;;;;10515875;28;20211;-78
2022/08/16 05:48:41;;;;;;;6.13;5.63;;;22.70;75.70;;;;;;10507728;28;20310;-78
2022/08/16 05:53:47;;;;;;;6.70;6.20;;;22.80;77.40;;;;;;10512023;28;20225;-78
2022/08/16 05:58:52;;;;;;;6.20;5.80;;;22.90;76.50;;;;;;10507324;28;20733;-78
2022/08/16 06:03:56;;;;;;;7.93;7.43;;;23.00;76.00;;;;;;10505209;28;20678;-78
2022/08/16 06:09:07;;;;;;;8.93;8.10;;;23.10;75.20;;;;;;10496212;28;20200;-78
2022/08/16 06:14:11;;;;;;;6.50;6.10;;;23.20;75.80;;;;;;10482104;28;20656;-78
2022/08/16 06:19:17;;;;;;;7.90;7.30;;;23.30;76.60;;;;;;10512042;28;20298;-78
2022/08/16 06:24:32;;;;;;;6.03;5.67;;;23.40;74.50;;;;;;10517422;28;20232;-78
2022/08/16 06:29:36;;;;;;;6.30;5.90;;;23.50;74.60;;;;;;10517327;28;20203;-78
2022/08/16 06:34:38;;;;;;;6.37;5.97;;;23.50;74.00;;;;;;10516028;28;20247;-78
2022/08/16 06:39:43;;;;;;;7.60;7.20;;;23.50;74.30;;;;;;10508572;28;20621;-78
2022/08/16 06:44:58;;;;;;;7.93;7.20;;;23.50;75.00;;;;;;10516926;28;20223;-79
2022/08/16 06:50:19;;;;;;;7.10;6.60;;;23.40;74.30;;;;;;10513960;28;20222;-78
2022/08/16 06:55:24;;;;;;;8.50;7.90;;;23.40;74.80;;;;;;10498728;28;20223;-79
2022/08/16 07:00:31;;;;;;;6.90;6.40;;;23.40;75.60;;;;;;10504927;28;20196;-79
2022/08/16 07:05:43;;;;;;;8.00;7.47;;;23.40;75.90;;;;;;10501381;28;20231;-78
2022/08/16 07:11:03;;;;;;;8.70;8.20;;;23.40;75.20;;;;;;10507654;28;20212;-79
2022/08/16 07:16:15;;;;;;;8.13;7.60;;;23.40;74.30;;;;;;10507937;28;20659;-78
2022/08/16 07:21:18;;;;;;;8.03;7.50;;;23.50;75.50;;;;;;10491615;28;20200;-78
2022/08/16 07:26:23;;;;;;;7.90;7.30;;;23.50;74.10;;;;;;10543159;22;20520;-77
2022/08/16 07:31:27;;;;;;;9.23;8.33;;;23.50;75.60;;;;;;10514826;28;20272;-78
2022/08/16 07:36:30;;;;;;;8.67;7.97;;;23.60;75.40;;;;;;10515168;28;20567;-78
2022/08/16 07:41:34;;;;;;;7.60;7.10;;;23.90;74.40;;;;;;10497003;28;20200;-77
2022/08/16 07:46:39;;;;;;;8.93;8.03;;;24.30;73.20;;;;;;10501404;28;20239;-79
2022/08/16 07:51:47;;;;;;;8.23;7.73;;;24.70;72.70;;;;;;10491920;28;20304;-77
2022/08/16 07:56:50;;;;;;;10.43;7.80;;;25.10;71.50;;;;;;10495681;28;20576;-78
2022/08/16 08:01:54;;;;;;;9.23;7.90;;;25.50;69.80;;;;;;10530370;28;20241;-77
2022/08/16 08:06:59;;;;;;;8.17;7.57;;;25.80;68.00;;;;;;10511055;28;20223;-77
2022/08/16 08:12:01;;;;;;;9.00;8.10;;;25.90;67.10;;;;;;10516930;28;20204;-78
2022/08/16 08:17:07;;;;;;;8.57;8.07;;;26.10;67.20;;;;;;10493760;28;20726;-77
2022/08/16 08:22:09;;;;;;;8.70;7.90;;;26.40;66.50;;;;;;10527998;28;20207;-77
2022/08/16 08:27:21;;;;;;;8.00;7.40;;;26.80;66.60;;;;;;10510288;28;20241;-78
2022/08/16 08:32:27;;;;;;;8.67;8.07;;;27.20;67.20;;;;;;10516761;28;20219;-77
2022/08/16 08:37:30;;;;;;;8.73;8.20;;;27.20;66.50;;;;;;10491533;28;20224;-77
2022/08/16 08:42:34;;;;;;;9.13;8.43;;;27.10;65.50;;;;;;10483114;28;20283;-77
2022/08/16 08:47:38;;;;;;;8.87;8.37;;;27.00;66.70;;;;;;10512762;28;20220;-77
2022/08/16 08:52:40;;;;;;;9.57;8.77;;;26.80;67.00;;;;;;10498576;28;20300;-77
2022/08/16 08:57:46;;;;;;;8.77;8.17;;;26.70;68.10;;;;;;10499217;28;20219;-77
2022/08/16 09:02:58;;;;;;;10.00;9.10;;;26.80;67.50;;;;;;10523592;28;20224;-77
2022/08/16 09:08:02;;;;;;;8.73;8.13;;;26.70;66.80;;;;;;10518278;28;20234;-77
2022/08/16 09:13:18;;;;;;;8.70;7.90;;;26.60;67.50;;;;;;10512457;28;20223;-77
2022/08/16 09:18:26;;;;;;;8.70;7.80;;;26.60;67.70;;;;;;10514645;28;20300;-77
2022/08/16 09:23:30;;;;;;;9.47;8.77;;;26.60;66.60;;;;;;10506857;28;20203;-77
2022/08/16 09:28:33;;;;;;;9.17;8.47;;;26.40;67.40;;;;;;10489551;28;20284;-77
2022/08/16 09:33:45;;;;;;;9.67;8.97;;;26.40;68.00;;;;;;10497440;28;20292;-77
2022/08/16 09:38:47;;;;;;;9.10;8.30;;;26.70;66.10;;;;;;10535712;28;20212;-77
2022/08/16 09:43:49;;;;;;;10.03;9.10;;;27.10;66.70;;;;;;10532300;28;20655;-77
2022/08/16 09:48:53;;;;;;;8.80;8.10;;;27.60;64.70;;;;;;10533292;28;20640;-77
2022/08/16 09:53:56;;;;;;;11.13;8.90;;;28.20;63.20;;;;;;10502025;28;20217;-77
2022/08/16 09:59:00;;;;;;;8.53;7.97;;;28.80;61.00;;;;;;10527091;28;20246;-78
2022/08/16 10:04:05;;;;;;;8.30;7.90;;;29.10;60.40;;;;;;10533329;28;20208;-77
2022/08/16 10:09:09;;;;;;;7.80;7.40;;;29.00;60.00;;;;;;10510298;28;20269;-77
2022/08/16 10:14:12;;;;;;;8.97;8.30;;;28.70;59.80;;;;;;10517404;28;20555;-77
2022/08/16 10:19:16;;;;;;;8.93;8.17;;;28.40;60.20;;;;;;10528891;28;20224;-78
2022/08/16 10:24:18;;;;;;;8.40;7.80;;;28.00;61.20;;;;;;10508602;28;20291;-77
2022/08/16 10:29:21;;;;;;;7.43;7.03;;;27.80;62.00;;;;;;10533048;28;20235;-77
2022/08/16 10:34:24;;;;;;;8.27;7.77;;;27.60;63.10;;;;;;10538333;28;20306;-77
2022/08/16 10:39:26;;;;;;;6.20;5.73;;;27.60;62.80;;;;;;10534495;28;20192;-77
2022/08/16 10:44:28;;;;;;;8.40;7.90;;;27.70;62.80;;;;;;10535767;28;20659;-77
2022/08/16 10:49:32;;;;;;;7.53;6.83;;;27.90;63.20;;;;;;10532057;28;20215;-78
2022/08/16 10:54:34;;;;;;;9.80;8.77;;;28.10;62.00;;;;;;10530919;28;20586;-78
2022/08/16 10:59:36;;;;;;;7.47;6.97;;;28.30;60.30;;;;;;10512215;28;20717;-77
2022/08/16 11:04:40;;;;;;;8.90;8.20;;;28.30;60.10;;;;;;10525591;28;20222;-78
2022/08/16 11:09:42;;;;;;;8.77;8.17;;;28.30;60.00;;;;;;10542299;28;20347;-78
2022/08/16 11:14:44;;;;;;;8.60;7.83;;;28.30;59.40;;;;;;10543089;28;20219;-77
2022/08/16 11:19:48;;;;;;;7.30;6.80;;;28.00;60.00;;;;;;10538199;28;20231;-77
2022/08/16 11:24:50;;;;;;;9.60;8.90;;;27.80;59.90;;;;;;10509149;28;20564;-79
2022/08/16 11:29:54;;;;;;;9.30;8.80;;;27.60;60.90;;;;;;10538135;28;20282;-79
2022/08/16 11:34:57;;;;;;;8.87;8.27;;;27.50;62.10;;;;;;10540001;28;20251;-78
2022/08/16 11:39:59;;;;;;;8.57;8.07;;;27.50;60.60;;;;;;10522726;28;20206;-78
2022/08/16 11:45:01;;;;;;;8.77;8.17;;;27.50;60.00;;;;;;10524761;28;20220;-78
2022/08/16 11:50:07;;;;;;;8.90;8.40;;;27.50;61.40;;;;;;10544881;28;20231;-78
2022/08/16 11:55:12;;;;;;;8.70;8.20;;;27.50;60.70;;;;;;10535263;28;20224;-78
2022/08/16 12:00:16;;;;;;;8.40;7.87;;;27.40;60.20;;;;;;10527702;28;20633;-78
2022/08/16 12:05:20;;;;;;;8.63;8.13;;;27.30;61.50;;;;;;10519187;28;20607;-79
2022/08/16 12:10:25;;;;;;;8.00;7.50;;;27.20;60.80;;;;;;10518600;28;20278;-77
2022/08/16 12:15:27;;;;;;;8.50;8.00;;;27.10;60.50;;;;;;10533329;28;20258;-79
2022/08/16 12:20:34;;;;;;;7.60;7.10;;;27.10;60.90;;;;;;10540415;28;20235;-79
2022/08/16 12:25:37;;;;;;;7.80;7.30;;;27.00;60.00;;;;;;10514000;28;20254;-77
2022/08/16 12:30:43;;;;;;;7.90;7.40;;;27.00;61.20;;;;;;10515091;28;20267;-77
2022/08/16 12:35:48;;;;;;;7.77;7.30;;;27.00;61.40;;;;;;10518978;28;20246;-77
2022/08/16 12:40:51;;;;;;;7.90;7.43;;;27.00;59.20;;;;;;10518847;28;20602;-77
2022/08/16 12:45:55;;;;;;;8.50;8.00;;;27.00;60.70;;;;;;10531754;28;20322;-77
2022/08/16 12:51:00;;;;;;;7.73;7.33;;;27.00;60.30;;;;;;10522429;28;20204;-77
2022/08/16 12:56:03;;;;;;;7.60;7.20;;;27.00;60.00;;;;;;10507236;28;20226;-78
2022/08/16 13:01:06;;;;;;;8.93;8.20;;;26.90;61.20;;;;;;10536689;28;20223;-77
2022/08/16 13:06:11;;;;;;;8.90;8.40;;;26.90;60.30;;;;;;10527710;28;20325;-77
2022/08/16 13:11:14;;;;;;;8.70;8.20;;;26.90;60.40;;;;;;10533537;28;20188;-77
2022/08/16 13:16:16;;;;;;;8.30;7.83;;;26.90;60.90;;;;;;10514191;28;20242;-77
2022/08/16 13:21:20;;;;;;;8.33;7.83;;;26.90;58.90;;;;;;10502572;28;20230;-77
2022/08/16 13:26:23;;;;;;;8.00;7.53;;;26.90;59.40;;;;;;10544008;22;20686;-80
2022/08/16 13:31:25;;;;;;;8.37;7.87;;;26.90;59.80;;;;;;10539669;28;20199;-80
2022/08/16 13:36:29;;;;;;;7.87;7.37;;;27.00;59.40;;;;;;10538040;28;20245;-80
2022/08/16 13:41:32;;;;;;;8.13;7.43;;;27.00;59.30;;;;;;10540736;28;20655;-80
2022/08/16 13:46:34;;;;;;;6.67;6.33;;;27.00;58.80;;;;;;10523580;28;20222;-80
2022/08/16 13:51:38;;;;;;;7.93;7.33;;;27.00;58.60;;;;;;10517665;28;20687;-78
2022/08/16 13:56:41;;;;;;;6.73;6.23;;;27.00;59.00;;;;;;10531839;28;20299;-80
2022/08/16 14:01:43;;;;;;;7.30;6.90;;;27.00;58.90;;;;;;10507098;28;20560;-77
2022/08/16 14:06:47;;;;;;;8.00;7.50;;;27.00;58.80;;;;;;10540345;28;20249;-78
2022/08/16 14:11:49;;;;;;;7.80;7.13;;;27.00;59.70;;;;;;10542208;28;20215;-78
2022/08/16 14:16:51;;;;;;;8.00;7.50;;;27.00;60.50;;;;;;10521291;28;20231;-80
2022/08/16 14:21:57;;;;;;;8.23;7.73;;;27.00;58.70;;;;;;10547486;28;20192;-78
2022/08/16 14:26:59;;;;;;;7.50;7.10;;;27.00;59.10;;;;;;10536324;28;20231;-78
2022/08/16 14:32:04;;;;;;;7.90;7.50;;;27.10;59.40;;;;;;10559412;28;20656;-78
2022/08/16 14:37:08;;;;;;;8.00;7.40;;;27.10;60.20;;;;;;10532402;28;20216;-78
2022/08/16 14:42:12;;;;;;;7.50;7.03;;;27.10;60.70;;;;;;10526094;28;20243;-79
2022/08/16 14:47:15;;;;;;;6.53;6.20;;;27.20;57.40;;;;;;10528895;28;20255;-80
2022/08/16 14:52:21;;;;;;;7.93;7.33;;;27.40;59.00;;;;;;10529222;28;20258;-80
2022/08/16 14:57:23;;;;;;;7.90;7.40;;;27.40;58.90;;;;;;10527833;28;20247;-79
2022/08/16 15:02:26;;;;;;;8.27;7.77;;;27.50;57.50;;;;;;10515153;28;20196;-78
2022/08/16 15:07:30;;;;;;;7.90;7.40;;;27.50;57.20;;;;;;10527587;28;20690;-79
2022/08/16 15:12:33;;;;;;;8.10;7.50;;;27.50;58.00;;;;;;10547774;28;20201;-77
2022/08/16 15:17:35;;;;;;;7.73;7.33;;;27.50;59.00;;;;;;10539112;28;20220;-78
2022/08/16 15:22:40;;;;;;;6.90;6.50;;;27.50;57.20;;;;;;10538409;28;20241;-79
2022/08/16 15:27:44;;;;;;;8.60;7.90;;;27.60;58.20;;;;;;10512612;28;20243;-80
2022/08/16 15:32:47;;;;;;;7.93;7.43;;;27.60;57.30;;;;;;10517279;28;20558;-80
2022/08/16 15:37:51;;;;;;;8.80;8.30;;;27.70;57.70;;;;;;10519975;28;20226;-77
2022/08/16 15:42:56;;;;;;;7.43;7.00;;;27.70;57.40;;;;;;10534671;28;20269;-79
2022/08/16 15:47:58;;;;;;;7.33;6.83;;;27.70;57.90;;;;;;10531528;28;20226;-79
2022/08/16 15:53:08;;;;;;;8.30;7.63;;;27.70;57.40;;;;;;10544165;28;20222;-79
2022/08/16 15:58:10;;;;;;;8.50;7.90;;;27.60;56.80;;;;;;10539727;28;20243;-79
2022/08/16 16:03:15;;;;;;;7.27;6.67;;;27.50;57.60;;;;;;10546064;28;20230;-78
2022/08/16 16:08:20;;;;;;;5.80;5.40;;;27.40;58.10;;;;;;10530933;28;20220;-80
2022/08/16 16:13:23;;;;;;;7.30;6.90;;;27.40;59.10;;;;;;10524972;28;20286;-79
2022/08/16 16:18:28;;;;;;;6.93;6.53;;;27.30;57.30;;;;;;10544064;28;20247;-80
2022/08/16 16:23:34;;;;;;;6.70;6.20;;;27.30;57.70;;;;;;10543616;28;20249;-79
2022/08/16 16:28:37;;;;;;;6.33;6.00;;;27.30;58.50;;;;;;10527107;28;20227;-79
2022/08/16 16:33:42;;;;;;;7.30;6.80;;;27.30;58.20;;;;;;10528746;28;20639;-80
2022/08/16 16:38:47;;;;;;;6.80;6.30;;;27.40;57.20;;;;;;10528617;28;20216;-80
2022/08/16 16:43:51;;;;;;;7.47;7.07;;;27.40;57.50;;;;;;10522572;28;20543;-78
2022/08/16 16:48:53;;;;;;;7.60;7.20;;;27.40;57.50;;;;;;10534929;28;20215;-79
2022/08/16 16:53:58;;;;;;;7.50;7.10;;;27.40;58.00;;;;;;10508894;28;20221;-78
2022/08/16 16:59:03;;;;;;;7.17;6.73;;;27.30;57.40;;;;;;10512525;28;20251;-79
2022/08/16 17:04:09;;;;;;;6.83;6.43;;;27.30;57.80;;;;;;10539429;28;20571;-79
2022/08/16 17:09:14;;;;;;;7.50;7.00;;;27.20;58.50;;;;;;10521377;28;20254;-80
2022/08/16 17:14:17;;;;;;;7.80;7.20;;;27.20;57.20;;;;;;10522860;28;20589;-80
2022/08/16 17:19:19;;;;;;;6.77;6.27;;;27.20;57.80;;;;;;10531436;28;20227;-80
2022/08/16 17:24:22;;;;;;;8.07;7.27;;;27.20;57.60;;;;;;10544706;28;20290;-80
2022/08/16 17:29:25;;;;;;;7.07;6.67;;;27.20;58.50;;;;;;10505473;28;20223;-79
2022/08/16 17:34:28;;;;;;;7.83;7.33;;;27.10;59.00;;;;;;10538944;28;20234;-78
2022/08/16 17:39:31;;;;;;;7.40;7.00;;;27.10;58.50;;;;;;10519602;28;20592;-78
2022/08/16 17:44:34;;;;;;;6.60;6.30;;;27.00;59.20;;;;;;10513831;28;20196;-81
2022/08/16 17:49:36;;;;;;;6.20;5.80;;;26.90;59.20;;;;;;10523188;28;20216;-80
2022/08/16 17:54:39;;;;;;;6.27;5.97;;;26.90;59.10;;;;;;10525932;28;20250;-80
2022/08/16 17:59:41;;;;;;;7.63;6.93;;;26.80;59.30;;;;;;10526865;28;20257;-79
2022/08/16 18:04:43;;;;;;;7.90;7.27;;;26.70;58.90;;;;;;10547637;28;20200;-79
2022/08/16 18:09:47;;;;;;;7.67;7.03;;;26.70;58.90;;;;;;10531860;28;20243;-80
2022/08/16 18:14:49;;;;;;;7.23;6.73;;;26.60;60.60;;;;;;10541891;28;20592;-78
2022/08/16 18:19:51;;;;;;;7.70;7.20;;;26.50;60.20;;;;;;10509293;28;20204;-78
2022/08/16 18:24:55;;;;;;;7.07;6.57;;;26.40;63.00;;;;;;10507649;28;20556;-81
2022/08/16 18:29:57;;;;;;;7.20;6.70;;;26.40;61.00;;;;;;10525852;28;20261;-81
2022/08/16 18:34:59;;;;;;;7.93;7.33;;;26.30;61.50;;;;;;10549137;28;20228;-79
2022/08/16 18:40:04;;;;;;;7.90;7.23;;;26.20;61.40;;;;;;10522723;28;20690;-79
2022/08/16 18:45:07;;;;;;;7.20;6.70;;;26.10;61.80;;;;;;10525549;28;20219;-83
2022/08/16 18:50:10;;;;;;;8.13;7.53;;;26.00;62.70;;;;;;10527115;28;20200;-80
2022/08/16 18:55:13;;;;;;;7.13;6.70;;;25.90;63.30;;;;;;10518104;28;20224;-80
2022/08/16 19:00:17;;;;;;;7.13;6.73;;;25.70;63.40;;;;;;10500139;28;20196;-81
2022/08/16 19:05:22;;;;;;;7.37;6.67;;;25.60;63.50;;;;;;10517098;28;20567;-83
2022/08/16 19:10:26;;;;;;;6.83;6.40;;;25.50;63.40;;;;;;10519262;28;20234;-80
2022/08/16 19:15:28;;;;;;;7.43;6.80;;;25.40;64.00;;;;;;10496664;28;20239;-80
2022/08/16 19:20:30;;;;;;;6.70;6.30;;;25.30;64.20;;;;;;10548931;28;20199;-80
2022/08/16 19:25:38;;;;;;;8.37;7.80;;;25.20;64.20;;;;;;10475444;22;1093108;-79
2022/08/16 19:30:40;;;;;;;6.90;6.50;;;25.10;64.60;;;;;;10536470;28;20255;-79
2022/08/16 19:35:42;;;;;;;6.27;5.87;;;25.00;64.60;;;;;;10509680;28;20316;-79
2022/08/16 19:40:46;;;;;;;8.17;7.57;;;25.00;64.60;;;;;;10480904;28;20694;-79
2022/08/16 19:45:49;;;;;;;7.17;6.77;;;25.00;65.40;;;;;;10481279;28;20217;-79
2022/08/16 19:50:51;;;;;;;7.40;6.90;;;24.90;65.20;;;;;;10463838;28;20292;-79
2022/08/16 19:55:54;;;;;;;7.20;6.50;;;24.80;65.10;;;;;;10470967;28;20228;-78
2022/08/16 20:00:56;;;;;;;7.53;7.03;;;24.80;65.70;;;;;;10470733;28;20572;-77
2022/08/16 20:05:59;;;;;;;7.20;6.60;;;24.80;65.50;;;;;;10496148;28;20262;-78
2022/08/16 20:11:02;;;;;;;6.63;6.20;;;24.70;66.10;;;;;;10500335;28;20232;-79
2022/08/16 20:16:04;;;;;;;7.73;7.07;;;24.60;66.90;;;;;;10505436;28;20228;-78
2022/08/16 20:21:06;;;;;;;6.63;6.10;;;24.60;66.90;;;;;;10497479;28;20201;-80
2022/08/16 20:26:10;;;;;;;6.80;6.40;;;24.50;67.20;;;;;;10458465;28;20231;-79
2022/08/16 20:31:12;;;;;;;7.40;6.80;;;24.40;67.20;;;;;;10465874;28;20619;-79
2022/08/16 20:36:14;;;;;;;9.13;6.63;;;24.40;67.30;;;;;;10486043;28;20270;-78
2022/08/16 20:41:18;;;;;;;6.73;6.13;;;24.40;67.20;;;;;;10467692;28;20696;-78
2022/08/16 20:46:55;;;;;;;6.50;6.10;;;24.30;67.20;;;;;;10469122;28;20220;-80
2022/08/16 20:51:57;;;;;;;6.97;6.27;;;24.30;66.70;;;;;;10495390;28;20204;-78
2022/08/16 20:57:00;;;;;;;6.77;6.37;;;24.20;67.80;;;;;;10499829;28;20250;-78
2022/08/16 21:02:03;;;;;;;7.70;7.23;;;24.20;67.20;;;;;;10494527;28;20212;-78
2022/08/16 21:07:06;;;;;;;6.70;6.30;;;24.10;67.00;;;;;;10494699;28;20248;-78
2022/08/16 21:12:13;;;;;;;6.70;6.30;;;24.10;67.30;;;;;;10496666;28;20302;-78
2022/08/16 21:17:16;;;;;;;6.97;6.40;;;24.00;68.00;;;;;;10506228;28;20644;-79
2022/08/16 21:22:19;;;;;;;6.80;6.30;;;24.00;68.00;;;;;;10502861;28;20200;-79
2022/08/16 21:27:23;;;;;;;7.50;6.80;;;23.90;67.60;;;;;;10478428;28;20794;-79
2022/08/16 21:32:25;;;;;;;6.63;6.13;;;23.90;67.20;;;;;;10495741;28;20283;-80
2022/08/16 21:37:27;;;;;;;6.77;6.27;;;23.80;67.50;;;;;;10475749;28;20225;-79
2022/08/16 21:42:31;;;;;;;6.13;5.63;;;23.80;67.90;;;;;;10464861;28;20203;-78
2022/08/16 21:47:33;;;;;;;5.90;5.40;;;23.70;67.40;;;;;;10494432;28;20223;-79
2022/08/16 21:52:35;;;;;;;6.67;6.17;;;23.70;67.30;;;;;;10486057;28;20228;-78
2022/08/16 21:57:38;;;;;;;6.80;6.20;;;23.70;67.60;;;;;;10489281;28;20228;-78
2022/08/16 22:02:41;;;;;;;6.77;6.27;;;23.60;67.90;;;;;;10491511;28;20201;-81
2022/08/16 22:07:43;;;;;;;7.07;6.57;;;23.60;68.00;;;;;;10483766;28;20213;-79
2022/08/16 22:12:46;;;;;;;6.37;5.77;;;23.50;67.70;;;;;;10470257;28;20288;-79
2022/08/16 22:17:48;;;;;;;6.80;6.20;;;23.50;67.40;;;;;;10486449;28;21253;-78
2022/08/16 22:22:51;;;;;;;7.57;7.07;;;23.50;67.40;;;;;;10487508;28;20221;-80
2022/08/16 22:27:55;;;;;;;7.67;7.07;;;23.40;67.90;;;;;;10483937;28;20591;-80
2022/08/16 22:32:57;;;;;;;6.87;6.37;;;23.30;68.80;;;;;;10502653;28;20205;-80
2022/08/16 22:37:59;;;;;;;7.30;6.30;;;23.30;68.90;;;;;;10507834;28;20744;-80
2022/08/16 22:43:02;;;;;;;6.20;5.80;;;23.30;70.20;;;;;;10505618;28;20202;-80
2022/08/16 22:48:05;;;;;;;7.60;7.10;;;23.30;68.60;;;;;;10506987;28;20307;-78
2022/08/16 22:53:08;;;;;;;6.27;5.87;;;23.30;69.40;;;;;;10478472;28;20269;-80
2022/08/16 22:58:12;;;;;;;6.37;5.97;;;23.20;70.00;;;;;;10505118;28;20278;-78
2022/08/16 23:03:16;;;;;;;7.23;6.83;;;23.20;69.80;;;;;;10492636;28;20288;-79
2022/08/16 23:08:21;;;;;;;6.30;5.80;;;23.20;69.00;;;;;;10501880;28;20595;-80
2022/08/16 23:13:26;;;;;;;6.50;6.10;;;23.20;68.70;;;;;;10495748;28;20288;-78
2022/08/16 23:18:28;;;;;;;6.47;6.03;;;23.20;69.00;;;;;;10494457;28;20536;-79
2022/08/16 23:23:30;;;;;;;6.20;5.90;;;23.10;68.90;;;;;;10495561;28;20196;-78
2022/08/16 23:28:34;;;;;;;6.77;6.20;;;23.00;69.00;;;;;;10495622;28;20220;-80
2022/08/16 23:33:36;;;;;;;5.80;5.40;;;23.00;68.50;;;;;;10490576;28;20205;-78
2022/08/16 23:38:38;;;;;;;6.03;5.63;;;23.00;68.70;;;;;;10492514;28;20434;-78
2022/08/16 23:43:43;;;;;;;6.97;6.47;;;22.90;68.40;;;;;;10469536;28;20220;-78
2022/08/16 23:48:46;;;;;;;6.63;6.23;;;22.80;68.60;;;;;;10494741;28;20225;-79
2022/08/16 23:53:49;;;;;;;6.27;5.87;;;22.80;70.30;;;;;;10471359;28;20274;-78
2022/08/16 23:58:52;;;;;;;6.00;5.50;;;22.70;70.60;;;;;;10475800;28;20227;-77
